createdAt,value
2022-09-14T00:00:09.477Z,9.50
2022-09-14T00:01:24.829Z,10.30
2022-09-14T00:02:10.453Z,9.90
2022-09-14T00:03:09.459Z,9.50
2022-09-14T00:04:09.334Z,10.00
2022-09-14T00:05:09.337Z,10.70
2022-09-14T00:06:10.197Z,11.00
2022-09-14T00:07:09.740Z,10.90
2022-09-14T00:08:09.289Z,11.80
2022-09-14T00:09:09.272Z,11.90
2022-09-14T00:10:09.315Z,11.90
2022-09-14T00:11:09.256Z,12.40
2022-09-14T00:12:09.236Z,11.60
2022-09-14T00:13:09.447Z,12.60
2022-09-14T00:14:09.223Z,12.90
2022-09-14T00:15:09.536Z,12.70
2022-09-14T00:16:09.251Z,12.90
2022-09-14T00:17:09.182Z,14.60
2022-09-14T00:18:09.179Z,15.20
2022-09-14T00:19:09.718Z,14.80
2022-09-14T00:20:09.154Z,14.50
2022-09-14T00:21:09.129Z,13.20
2022-09-14T00:22:09.255Z,13.20
2022-09-14T00:23:09.096Z,13.60
2022-09-14T00:24:09.107Z,14.60
2022-09-14T00:25:09.777Z,15.10
2022-09-14T00:26:09.097Z,15.30
2022-09-14T00:27:09.976Z,14.00
2022-09-14T00:28:09.066Z,15.60
2022-09-14T00:29:09.046Z,15.70
2022-09-14T00:30:09.048Z,15.80
2022-09-14T00:31:09.049Z,16.60
2022-09-14T00:32:09.082Z,16.80
2022-09-14T00:33:09.918Z,16.90
2022-09-14T00:34:09.097Z,16.80
2022-09-14T00:35:09.013Z,18.00
2022-09-14T00:36:08.978Z,17.40
2022-09-14T00:37:08.947Z,18.20
2022-09-14T00:38:08.943Z,17.40
2022-09-14T00:39:08.921Z,15.60
2022-09-14T00:40:08.970Z,16.40
2022-09-14T00:41:08.910Z,12.30
2022-09-14T00:42:08.899Z,14.60
2022-09-14T00:43:08.879Z,13.50
2022-09-14T00:44:08.896Z,14.80
2022-09-14T00:45:08.868Z,13.00
2022-09-14T00:46:09.600Z,12.90
2022-09-14T00:47:09.632Z,11.60
2022-09-14T00:48:08.841Z,11.40
2022-09-14T00:49:08.817Z,12.20
2022-09-14T00:50:08.809Z,9.20
2022-09-14T00:51:08.787Z,11.40
2022-09-14T00:52:08.899Z,11.20
2022-09-14T00:53:08.758Z,11.80
2022-09-14T00:54:08.758Z,11.80
2022-09-14T00:55:09.047Z,10.10
2022-09-14T00:56:08.738Z,10.80
2022-09-14T00:57:08.717Z,11.80
2022-09-14T00:58:08.735Z,11.80
2022-09-14T00:59:08.718Z,11.60
2022-09-14T01:00:09.626Z,10.40
2022-09-14T01:01:09.134Z,10.70
2022-09-14T01:02:08.753Z,10.80
2022-09-14T01:03:08.647Z,12.90
2022-09-14T01:04:08.658Z,12.50
2022-09-14T01:05:08.627Z,12.40
2022-09-14T01:06:08.831Z,12.20
2022-09-14T01:07:08.867Z,10.80
2022-09-14T01:08:08.918Z,9.30
2022-09-14T01:09:08.959Z,11.60
2022-09-14T01:10:08.587Z,10.90
2022-09-14T01:11:09.037Z,9.70
2022-09-14T01:12:08.567Z,8.50
2022-09-14T01:13:08.539Z,8.90
2022-09-14T01:14:08.561Z,10.00
2022-09-14T01:15:08.528Z,11.50
2022-09-14T01:16:08.587Z,10.90
2022-09-14T01:17:08.720Z,11.10
2022-09-14T01:18:08.501Z,10.10
2022-09-14T01:19:08.478Z,10.40
2022-09-14T01:20:08.479Z,13.20
2022-09-14T01:21:08.458Z,13.50
2022-09-14T01:22:08.459Z,13.00
2022-09-14T01:23:08.436Z,13.50
2022-09-14T01:24:08.429Z,12.80
2022-09-14T01:25:08.401Z,13.20
2022-09-14T01:26:08.410Z,13.90
2022-09-14T01:27:08.749Z,13.60
2022-09-14T01:28:09.239Z,14.40
2022-09-14T01:29:08.381Z,9.80
2022-09-14T01:30:08.362Z,11.80
2022-09-14T01:31:08.370Z,13.20
2022-09-14T01:32:08.351Z,11.80
2022-09-14T01:33:08.332Z,12.60
2022-09-14T01:34:08.320Z,11.40
2022-09-14T01:35:08.288Z,13.50
2022-09-14T01:36:08.302Z,13.50
2022-09-14T01:37:08.278Z,13.90
2022-09-14T01:38:08.277Z,13.90
2022-09-14T01:39:08.248Z,14.20
2022-09-14T01:40:08.315Z,14.00
2022-09-14T01:41:08.228Z,13.60
2022-09-14T01:42:08.227Z,12.70
2022-09-14T01:43:08.231Z,8.80
2022-09-14T01:44:08.219Z,12.40
2022-09-14T01:45:08.187Z,12.30
2022-09-14T01:46:08.269Z,13.10
2022-09-14T01:47:08.164Z,13.90
2022-09-14T01:48:08.234Z,12.00
2022-09-14T01:49:08.418Z,11.60
2022-09-14T01:50:08.139Z,9.70
2022-09-14T01:51:08.108Z,6.70
2022-09-14T01:52:08.099Z,8.80
2022-09-14T01:53:08.089Z,11.50
2022-09-14T01:54:08.110Z,12.80
2022-09-14T01:55:08.073Z,13.30
2022-09-14T01:56:08.069Z,13.40
2022-09-14T01:57:08.043Z,13.80
2022-09-14T01:58:08.040Z,14.30
2022-09-14T01:59:08.030Z,14.60
2022-09-14T02:00:08.063Z,14.00
2022-09-14T02:01:08.128Z,13.10
2022-09-14T02:02:08.100Z,13.80
2022-09-14T02:03:08.026Z,14.00
2022-09-14T02:04:08.038Z,14.40
2022-09-14T02:05:07.978Z,13.70
2022-09-14T02:06:07.964Z,13.40
2022-09-14T02:07:07.937Z,14.10
2022-09-14T02:08:07.948Z,12.80
2022-09-14T02:09:08.630Z,13.70
2022-09-14T02:10:07.947Z,13.40
2022-09-14T02:11:07.901Z,12.50
2022-09-14T02:12:07.894Z,12.00
2022-09-14T02:13:07.861Z,12.20
2022-09-14T02:14:07.869Z,11.60
2022-09-14T02:15:07.840Z,10.70
2022-09-14T02:16:07.928Z,10.70
2022-09-14T02:17:07.810Z,11.80
2022-09-14T02:18:07.823Z,10.40
2022-09-14T02:19:07.790Z,11.10
2022-09-14T02:20:07.801Z,11.90
2022-09-14T02:21:07.769Z,12.50
2022-09-14T02:22:07.780Z,12.00
2022-09-14T02:23:07.752Z,11.60
2022-09-14T02:24:07.750Z,12.00
2022-09-14T02:25:07.726Z,12.00
2022-09-14T02:26:07.723Z,12.50
2022-09-14T02:27:07.706Z,13.10
2022-09-14T02:28:07.710Z,11.30
2022-09-14T02:29:08.501Z,10.90
2022-09-14T02:30:07.682Z,11.80
2022-09-14T02:31:07.718Z,11.60
2022-09-14T02:32:07.651Z,11.40
2022-09-14T02:33:07.643Z,10.30
2022-09-14T02:34:07.643Z,11.10
2022-09-14T02:35:07.619Z,10.10
2022-09-14T02:36:07.613Z,9.60
2022-09-14T02:37:07.592Z,9.40
2022-09-14T02:38:07.591Z,8.80
2022-09-14T02:39:07.570Z,8.90
2022-09-14T02:40:07.663Z,8.30
2022-09-14T02:41:07.541Z,9.20
2022-09-14T02:42:07.556Z,8.90
2022-09-14T02:43:07.522Z,9.10
2022-09-14T02:44:07.535Z,7.70
2022-09-14T02:45:07.507Z,6.70
2022-09-14T02:46:07.541Z,5.90
2022-09-14T02:47:07.532Z,4.90
2022-09-14T02:48:07.484Z,7.10
2022-09-14T02:49:08.410Z,5.90
2022-09-14T02:50:07.465Z,6.20
2022-09-14T02:51:07.441Z,6.70
2022-09-14T02:52:07.442Z,6.60
2022-09-14T02:53:07.412Z,7.20
2022-09-14T02:54:07.412Z,6.90
2022-09-14T02:55:07.402Z,6.10
2022-09-14T02:56:07.393Z,6.30
2022-09-14T02:57:07.373Z,6.50
2022-09-14T02:58:07.383Z,6.00
2022-09-14T02:59:07.343Z,6.60
2022-09-14T03:00:07.342Z,6.50
2022-09-14T03:01:07.521Z,7.10
2022-09-14T03:02:07.502Z,7.10
2022-09-14T03:03:07.312Z,7.70
2022-09-14T03:04:07.314Z,7.70
2022-09-14T03:05:07.274Z,8.20
2022-09-14T03:06:07.272Z,7.80
2022-09-14T03:07:07.252Z,8.10
2022-09-14T03:08:07.254Z,8.80
2022-09-14T03:09:07.243Z,7.80
2022-09-14T03:10:08.007Z,8.30
2022-09-14T03:11:07.333Z,9.40
2022-09-14T03:12:07.203Z,9.30
2022-09-14T03:13:07.182Z,9.30
2022-09-14T03:14:07.202Z,9.00
2022-09-14T03:15:07.163Z,8.30
2022-09-14T03:16:07.336Z,8.60
2022-09-14T03:17:07.142Z,9.50
2022-09-14T03:18:10.001Z,9.10
2022-09-14T03:19:08.122Z,7.90
2022-09-14T03:20:07.154Z,8.80
2022-09-14T03:21:07.093Z,8.40
2022-09-14T03:22:07.096Z,8.10
2022-09-14T03:23:07.064Z,8.40
2022-09-14T03:24:07.086Z,9.10
2022-09-14T03:25:07.054Z,8.50
2022-09-14T03:26:07.063Z,8.90
2022-09-14T03:27:07.024Z,8.90
2022-09-14T03:28:07.038Z,8.90
2022-09-14T03:29:07.005Z,9.00
2022-09-14T03:30:07.091Z,9.10
2022-09-14T03:31:07.984Z,9.40
2022-09-14T03:32:07.003Z,9.20
2022-09-14T03:33:06.987Z,9.40
2022-09-14T03:34:06.970Z,9.50
2022-09-14T03:35:06.939Z,10.40
2022-09-14T03:36:06.935Z,9.80
2022-09-14T03:37:07.094Z,10.00
2022-09-14T03:38:06.925Z,9.70
2022-09-14T03:39:06.894Z,9.70
2022-09-14T03:40:06.945Z,9.60
2022-09-14T03:41:06.875Z,9.50
2022-09-14T03:42:06.875Z,9.60
2022-09-14T03:43:06.845Z,9.50
2022-09-14T03:44:14.616Z,9.50
2022-09-14T03:45:06.841Z,9.70
2022-09-14T03:46:06.894Z,10.10
2022-09-14T03:47:06.808Z,10.60
2022-09-14T03:48:06.808Z,10.30
2022-09-14T03:49:06.781Z,10.80
2022-09-14T03:50:06.809Z,9.80
2022-09-14T03:51:07.547Z,9.30
2022-09-14T03:52:06.780Z,10.00
2022-09-14T03:53:06.729Z,10.30
2022-09-14T03:54:06.740Z,10.10
2022-09-14T03:55:06.709Z,9.90
2022-09-14T03:56:06.719Z,10.30
2022-09-14T03:57:06.691Z,9.70
2022-09-14T03:58:06.690Z,9.90
2022-09-14T03:59:07.098Z,9.30
2022-09-14T04:00:06.686Z,10.50
2022-09-14T04:01:06.667Z,10.60
2022-09-14T04:02:06.699Z,10.70
2022-09-14T04:03:06.721Z,10.70
2022-09-14T04:04:06.609Z,10.80
2022-09-14T04:05:07.483Z,10.90
2022-09-14T04:06:06.600Z,10.60
2022-09-14T04:07:07.543Z,11.00
2022-09-14T04:08:06.589Z,11.10
2022-09-14T04:09:07.000Z,10.30
2022-09-14T04:10:06.550Z,11.40
2022-09-14T04:11:07.410Z,10.70
2022-09-14T04:12:07.324Z,10.50
2022-09-14T04:13:06.921Z,10.70
2022-09-14T04:14:06.500Z,11.30
2022-09-14T04:15:06.508Z,11.40
2022-09-14T04:16:06.546Z,11.40
2022-09-14T04:17:06.480Z,11.30
2022-09-14T04:18:07.101Z,11.00
2022-09-14T04:19:06.468Z,11.60
2022-09-14T04:20:06.459Z,11.30
2022-09-14T04:21:08.530Z,11.70
2022-09-14T04:22:06.419Z,11.70
2022-09-14T04:23:06.428Z,12.60
2022-09-14T04:24:15.530Z,12.50
2022-09-14T04:25:07.390Z,11.50
2022-09-14T04:26:06.361Z,11.30
2022-09-14T04:27:06.384Z,11.80
2022-09-14T04:28:21.593Z,11.70
2022-09-14T04:29:07.993Z,11.90
2022-09-14T04:30:06.334Z,11.70
2022-09-14T04:31:06.702Z,12.40
2022-09-14T04:32:07.191Z,12.20
2022-09-14T04:33:06.322Z,11.70
2022-09-14T04:34:06.290Z,12.60
2022-09-14T04:35:06.286Z,12.50
2022-09-14T04:36:06.250Z,12.40
2022-09-14T04:37:06.260Z,12.50
2022-09-14T04:38:06.235Z,12.90
2022-09-14T04:39:06.235Z,12.90
2022-09-14T04:40:06.262Z,13.50
2022-09-14T04:41:06.211Z,13.20
2022-09-14T04:42:06.184Z,13.70
2022-09-14T04:43:06.183Z,12.80
2022-09-14T04:44:06.160Z,13.30
2022-09-14T04:45:06.967Z,13.60
2022-09-14T04:46:06.186Z,13.00
2022-09-14T04:47:06.161Z,13.10
2022-09-14T04:48:06.143Z,12.90
2022-09-14T04:49:06.114Z,12.30
2022-09-14T04:50:06.096Z,13.30
2022-09-14T04:51:06.913Z,12.80
2022-09-14T04:52:06.826Z,14.10
2022-09-14T04:53:06.823Z,15.00
2022-09-14T04:54:06.056Z,15.90
2022-09-14T04:55:06.061Z,15.10
2022-09-14T04:56:06.944Z,14.80
2022-09-14T04:57:06.046Z,15.00
2022-09-14T04:58:06.003Z,15.40
2022-09-14T04:59:06.222Z,15.30
2022-09-14T05:00:05.983Z,14.90
2022-09-14T05:01:05.992Z,15.50
2022-09-14T05:02:06.002Z,15.60
2022-09-14T05:03:06.081Z,14.30
2022-09-14T05:04:05.935Z,14.80
2022-09-14T05:05:06.193Z,15.00
2022-09-14T05:06:05.921Z,15.40
2022-09-14T05:07:05.959Z,15.30
2022-09-14T05:08:05.893Z,14.50
2022-09-14T05:09:05.913Z,15.10
2022-09-14T05:10:05.872Z,15.60
2022-09-14T05:11:05.913Z,15.00
2022-09-14T05:12:05.878Z,15.70
2022-09-14T05:13:06.583Z,15.90
2022-09-14T05:14:06.744Z,16.80
2022-09-14T05:15:06.645Z,17.00
2022-09-14T05:16:05.874Z,17.70
2022-09-14T05:17:05.807Z,17.60
2022-09-14T05:18:06.474Z,16.60
2022-09-14T05:19:05.803Z,16.60
2022-09-14T05:20:05.753Z,16.90
2022-09-14T05:21:08.424Z,16.80
2022-09-14T05:22:05.740Z,16.50
2022-09-14T05:23:06.521Z,17.20
2022-09-14T05:24:05.735Z,16.70
2022-09-14T05:25:05.723Z,16.30
2022-09-14T05:26:05.693Z,15.20
2022-09-14T05:27:05.693Z,16.10
2022-09-14T05:28:06.426Z,14.50
2022-09-14T05:29:05.724Z,15.00
2022-09-14T05:30:05.653Z,14.50
2022-09-14T05:31:05.784Z,13.40
2022-09-14T05:32:05.633Z,13.30
2022-09-14T05:33:06.458Z,13.50
2022-09-14T05:34:05.613Z,12.30
2022-09-14T05:35:05.631Z,12.60
2022-09-14T05:36:05.949Z,12.90
2022-09-14T05:37:05.583Z,13.50
2022-09-14T05:38:05.653Z,12.80
2022-09-14T05:39:05.584Z,12.40
2022-09-14T05:40:05.597Z,12.00
2022-09-14T05:41:05.576Z,12.60
2022-09-14T05:42:05.587Z,11.70
2022-09-14T05:43:05.605Z,11.30
2022-09-14T05:44:05.669Z,12.10
2022-09-14T05:45:06.326Z,11.50
2022-09-14T05:46:05.550Z,11.70
2022-09-14T05:47:05.495Z,11.90
2022-09-14T05:48:05.445Z,11.70
2022-09-14T05:49:05.461Z,12.80
2022-09-14T05:50:05.415Z,12.60
2022-09-14T05:51:06.267Z,12.30
2022-09-14T05:52:05.412Z,12.30
2022-09-14T05:53:06.184Z,13.40
2022-09-14T05:54:05.435Z,13.70
2022-09-14T05:55:05.505Z,13.80
2022-09-14T05:56:06.294Z,13.40
2022-09-14T05:57:06.195Z,13.30
2022-09-14T05:58:05.835Z,13.60
2022-09-14T05:59:05.351Z,13.60
2022-09-14T06:00:05.972Z,13.10
2022-09-14T06:01:06.082Z,13.50
2022-09-14T06:02:06.315Z,12.50
2022-09-14T06:03:05.312Z,13.10
2022-09-14T06:04:05.256Z,11.70
2022-09-14T06:05:05.350Z,11.70
2022-09-14T06:06:05.246Z,14.10
2022-09-14T06:07:18.520Z,14.90
2022-09-14T06:08:06.245Z,14.20
2022-09-14T06:09:05.228Z,14.30
2022-09-14T06:10:05.975Z,13.10
2022-09-14T06:11:05.215Z,13.60
2022-09-14T06:12:05.486Z,14.50
2022-09-14T06:13:05.944Z,12.80
2022-09-14T06:14:06.111Z,13.60
2022-09-14T06:15:05.169Z,13.90
2022-09-14T06:16:05.675Z,13.40
2022-09-14T06:17:05.557Z,15.60
2022-09-14T06:18:05.439Z,13.20
2022-09-14T06:19:05.116Z,14.10
2022-09-14T06:20:05.142Z,14.70
2022-09-14T06:21:05.115Z,13.60
2022-09-14T06:22:05.124Z,11.00
2022-09-14T06:23:05.125Z,13.00
2022-09-14T06:24:05.085Z,13.10
2022-09-14T06:25:05.818Z,12.80
2022-09-14T06:26:05.038Z,13.50
2022-09-14T06:27:05.883Z,13.20
2022-09-14T06:28:05.787Z,13.80
2022-09-14T06:29:05.020Z,12.70
2022-09-14T06:30:04.996Z,10.50
2022-09-14T06:31:04.988Z,9.80
2022-09-14T06:32:04.966Z,11.40
2022-09-14T06:33:04.986Z,12.60
2022-09-14T06:34:04.947Z,11.70
2022-09-14T06:35:08.213Z,12.00
2022-09-14T06:36:06.669Z,12.30
2022-09-14T06:37:04.916Z,11.80
2022-09-14T06:38:05.029Z,12.00
2022-09-14T06:39:05.747Z,12.30
2022-09-14T06:40:04.946Z,11.80
2022-09-14T06:41:05.684Z,11.20
2022-09-14T06:42:05.579Z,10.50
2022-09-14T06:43:04.890Z,11.30
2022-09-14T06:44:05.780Z,11.60
2022-09-14T06:45:05.759Z,12.60
2022-09-14T06:46:05.591Z,11.40
2022-09-14T06:47:04.816Z,11.40
2022-09-14T06:48:04.799Z,11.80
2022-09-14T06:49:04.767Z,12.10
2022-09-14T06:50:04.848Z,12.50
2022-09-14T06:51:04.769Z,11.60
2022-09-14T06:52:05.551Z,11.90
2022-09-14T06:53:05.551Z,9.40
2022-09-14T06:54:05.450Z,9.60
2022-09-14T06:55:05.536Z,9.40
2022-09-14T06:56:04.697Z,9.50
2022-09-14T06:57:05.599Z,9.20
2022-09-14T06:58:04.997Z,9.60
2022-09-14T06:59:04.681Z,10.50
2022-09-14T07:00:04.676Z,8.20
2022-09-14T07:01:05.430Z,9.40
2022-09-14T07:02:04.678Z,10.50
2022-09-14T07:03:04.725Z,9.80
2022-09-14T07:04:05.396Z,9.60
2022-09-14T07:05:04.960Z,8.40
2022-09-14T07:06:04.961Z,8.70
2022-09-14T07:07:04.581Z,8.10
2022-09-14T07:08:08.968Z,8.70
2022-09-14T07:09:05.998Z,8.80
2022-09-14T07:10:04.590Z,8.40
2022-09-14T07:11:05.549Z,8.20
2022-09-14T07:12:04.499Z,7.60
2022-09-14T07:13:04.499Z,7.40
2022-09-14T07:14:04.489Z,7.40
2022-09-14T07:15:05.417Z,8.20
2022-09-14T07:16:05.271Z,7.40
2022-09-14T07:17:04.468Z,7.20
2022-09-14T07:18:04.519Z,6.70
2022-09-14T07:19:05.243Z,7.40
2022-09-14T07:20:04.528Z,7.60
2022-09-14T07:21:05.854Z,7.80
2022-09-14T07:22:04.398Z,6.10
2022-09-14T07:23:04.399Z,7.00
2022-09-14T07:24:05.138Z,6.80
2022-09-14T07:25:04.571Z,7.40
2022-09-14T07:26:04.349Z,6.70
2022-09-14T07:27:04.364Z,7.10
2022-09-14T07:28:05.138Z,7.00
2022-09-14T07:29:04.599Z,7.20
2022-09-14T07:30:05.069Z,6.70
2022-09-14T07:31:04.681Z,6.40
2022-09-14T07:32:05.020Z,6.60
2022-09-14T07:33:04.629Z,7.00
2022-09-14T07:34:04.298Z,6.80
2022-09-14T07:35:04.261Z,6.60
2022-09-14T07:36:05.001Z,6.60
2022-09-14T07:37:04.301Z,6.90
2022-09-14T07:38:04.248Z,6.20
2022-09-14T07:39:04.441Z,5.80
2022-09-14T07:40:04.250Z,5.70
2022-09-14T07:41:04.190Z,5.90
2022-09-14T07:42:04.159Z,5.60
2022-09-14T07:43:04.181Z,6.20
2022-09-14T07:44:04.143Z,5.30
2022-09-14T07:45:04.150Z,5.50
2022-09-14T07:46:04.256Z,5.40
2022-09-14T07:47:04.210Z,4.10
2022-09-14T07:48:04.149Z,5.30
2022-09-14T07:49:04.776Z,5.00
2022-09-14T07:50:04.070Z,4.90
2022-09-14T07:51:04.072Z,4.80
2022-09-14T07:52:04.067Z,4.90
2022-09-14T07:53:04.808Z,5.10
2022-09-14T07:54:04.858Z,4.50
2022-09-14T07:55:04.020Z,4.80
2022-09-14T07:56:04.011Z,4.80
2022-09-14T07:57:04.023Z,4.70
2022-09-14T07:58:03.990Z,4.90
2022-09-14T07:59:30.753Z,4.60
2022-09-14T08:00:04.967Z,4.70
2022-09-14T08:01:04.068Z,4.30
2022-09-14T08:02:04.342Z,4.10
2022-09-14T08:03:03.954Z,4.50
2022-09-14T08:04:05.601Z,4.90
2022-09-14T08:05:04.120Z,4.70
2022-09-14T08:06:04.850Z,4.40
2022-09-14T08:07:03.902Z,4.20
2022-09-14T08:08:04.633Z,4.00
2022-09-14T08:09:03.862Z,4.50
2022-09-14T08:10:04.692Z,4.30
2022-09-14T08:11:04.601Z,4.40
2022-09-14T08:12:03.906Z,4.20
2022-09-14T08:13:04.520Z,4.30
2022-09-14T08:14:03.821Z,4.00
2022-09-14T08:15:03.792Z,4.00
2022-09-14T08:16:04.041Z,4.10
2022-09-14T08:17:04.532Z,3.40
2022-09-14T08:18:04.693Z,3.50
2022-09-14T08:19:04.043Z,3.60
2022-09-14T08:20:04.022Z,3.00
2022-09-14T08:21:04.666Z,3.70
2022-09-14T08:22:04.032Z,2.80
2022-09-14T08:23:03.681Z,3.40
2022-09-14T08:24:04.496Z,3.40
2022-09-14T08:25:03.672Z,3.80
2022-09-14T08:26:03.666Z,3.30
2022-09-14T08:27:03.672Z,2.90
2022-09-14T08:28:04.602Z,2.90
2022-09-14T08:29:04.402Z,3.30
2022-09-14T08:30:04.422Z,3.50
2022-09-14T08:31:03.754Z,3.00
2022-09-14T08:32:03.646Z,2.90
2022-09-14T08:33:03.563Z,3.30
2022-09-14T08:34:03.570Z,2.90
2022-09-14T08:35:03.713Z,3.10
2022-09-14T08:36:03.561Z,2.80
2022-09-14T08:37:04.402Z,2.90
2022-09-14T08:38:04.325Z,2.80
2022-09-14T08:39:03.493Z,2.50
2022-09-14T08:40:03.551Z,2.40
2022-09-14T08:41:03.475Z,2.30
2022-09-14T08:42:03.753Z,2.50
2022-09-14T08:43:03.463Z,3.10
2022-09-14T08:44:03.453Z,2.70
2022-09-14T08:45:07.624Z,3.10
2022-09-14T08:46:04.671Z,2.50
2022-09-14T08:47:03.405Z,2.20
2022-09-14T08:48:03.403Z,2.50
2022-09-14T08:49:03.382Z,2.30
2022-09-14T08:50:03.413Z,2.60
2022-09-14T08:51:03.812Z,2.80
2022-09-14T08:52:03.362Z,2.20
2022-09-14T08:53:03.333Z,2.80
2022-09-14T08:54:03.343Z,2.80
2022-09-14T08:55:03.314Z,2.80
2022-09-14T08:56:03.313Z,2.90
2022-09-14T08:57:03.295Z,2.50
2022-09-14T08:58:03.303Z,2.60
2022-09-14T08:59:03.334Z,2.50
2022-09-14T09:00:03.473Z,2.00
2022-09-14T09:01:03.292Z,1.70
2022-09-14T09:02:03.284Z,2.10
2022-09-14T09:03:03.221Z,2.00
2022-09-14T09:04:03.296Z,1.80
2022-09-14T09:05:03.206Z,1.70
2022-09-14T09:06:03.203Z,2.10
2022-09-14T09:07:03.174Z,2.10
2022-09-14T09:08:03.175Z,2.40
2022-09-14T09:09:03.153Z,2.30
2022-09-14T09:10:03.154Z,1.80
2022-09-14T09:11:03.137Z,1.80
2022-09-14T09:12:03.146Z,1.50
2022-09-14T09:13:03.104Z,1.40
2022-09-14T09:14:03.105Z,1.40
2022-09-14T09:15:03.085Z,1.80
2022-09-14T09:16:03.207Z,1.70
2022-09-14T09:17:03.067Z,1.70
2022-09-14T09:18:03.075Z,1.60
2022-09-14T09:19:03.964Z,1.40
2022-09-14T09:20:03.036Z,1.20
2022-09-14T09:21:03.106Z,1.50
2022-09-14T09:22:03.025Z,1.60
2022-09-14T09:23:02.994Z,1.50
2022-09-14T09:24:03.000Z,1.30
2022-09-14T09:25:02.967Z,1.80
2022-09-14T09:26:02.976Z,1.20
2022-09-14T09:27:02.955Z,1.40
2022-09-14T09:28:03.865Z,1.30
2022-09-14T09:29:02.926Z,1.50
2022-09-14T09:30:02.932Z,1.40
2022-09-14T09:31:02.995Z,1.80
2022-09-14T09:32:02.920Z,1.50
2022-09-14T09:33:02.875Z,1.50
2022-09-14T09:34:02.877Z,1.20
2022-09-14T09:35:02.855Z,1.40
2022-09-14T09:36:02.856Z,1.20
2022-09-14T09:37:02.839Z,1.40
2022-09-14T09:38:02.847Z,1.20
2022-09-14T09:39:05.355Z,1.40
2022-09-14T09:40:02.883Z,1.50
2022-09-14T09:41:02.786Z,1.20
2022-09-14T09:42:02.788Z,1.20
2022-09-14T09:43:02.758Z,1.00
2022-09-14T09:44:02.796Z,1.30
2022-09-14T09:45:04.070Z,1.10
2022-09-14T09:46:02.738Z,1.50
2022-09-14T09:47:02.816Z,1.20
2022-09-14T09:48:02.725Z,1.10
2022-09-14T09:49:02.699Z,1.10
2022-09-14T09:50:02.700Z,1.20
2022-09-14T09:51:02.678Z,1.10
2022-09-14T09:52:02.705Z,1.10
2022-09-14T09:53:06.694Z,1.20
2022-09-14T09:54:02.675Z,1.00
2022-09-14T09:55:02.646Z,1.20
2022-09-14T09:56:02.631Z,1.20
2022-09-14T09:57:02.944Z,1.10
2022-09-14T09:58:02.605Z,1.10
2022-09-14T09:59:02.837Z,0.90
2022-09-14T10:00:02.657Z,1.10
2022-09-14T10:01:02.635Z,0.80
2022-09-14T10:02:02.636Z,0.80
2022-09-14T10:03:02.542Z,0.90
2022-09-14T10:04:02.538Z,0.90
2022-09-14T10:05:02.518Z,1.10
2022-09-14T10:06:02.508Z,1.10
2022-09-14T10:07:02.508Z,1.00
2022-09-14T10:08:02.510Z,1.00
2022-09-14T10:09:02.458Z,1.10
2022-09-14T10:10:02.472Z,1.00
2022-09-14T10:11:02.447Z,1.20
2022-09-14T10:12:02.448Z,0.80
2022-09-14T10:13:02.419Z,1.10
2022-09-14T10:14:02.429Z,1.50
2022-09-14T10:15:02.401Z,1.60
2022-09-14T10:16:02.445Z,1.90
2022-09-14T10:17:02.383Z,1.50
2022-09-14T10:18:02.379Z,2.00
2022-09-14T10:19:02.361Z,1.30
2022-09-14T10:20:02.350Z,1.00
2022-09-14T10:21:02.342Z,1.30
2022-09-14T10:22:02.341Z,1.20
2022-09-14T10:23:02.359Z,1.30
2022-09-14T10:24:02.308Z,1.50
2022-09-14T10:25:02.279Z,1.40
2022-09-14T10:26:02.289Z,1.40
2022-09-14T10:27:02.259Z,1.40
2022-09-14T10:28:03.080Z,0.90
2022-09-14T10:29:02.279Z,1.90
2022-09-14T10:30:02.240Z,1.50
2022-09-14T10:31:02.274Z,1.40
2022-09-14T10:32:02.231Z,1.30
2022-09-14T10:33:02.245Z,1.40
2022-09-14T10:34:02.199Z,1.30
2022-09-14T10:35:02.170Z,1.40
2022-09-14T10:36:02.183Z,1.30
2022-09-14T10:37:02.154Z,1.50
2022-09-14T10:38:02.160Z,1.60
2022-09-14T10:39:02.137Z,1.40
2022-09-14T10:40:02.241Z,1.00
2022-09-14T10:41:02.212Z,1.30
2022-09-14T10:42:02.101Z,1.70
2022-09-14T10:43:02.090Z,1.40
2022-09-14T10:44:02.080Z,1.40
2022-09-14T10:45:02.061Z,1.30
2022-09-14T10:46:02.177Z,1.20
2022-09-14T10:47:04.762Z,1.80
2022-09-14T10:48:02.039Z,1.60
2022-09-14T10:49:02.011Z,1.30
2022-09-14T10:50:02.033Z,1.30
2022-09-14T10:51:01.990Z,1.10
2022-09-14T10:52:01.991Z,1.40
2022-09-14T10:53:01.962Z,1.00
2022-09-14T10:54:02.010Z,1.00
2022-09-14T10:55:01.944Z,0.80
2022-09-14T10:56:01.974Z,1.00
2022-09-14T10:57:01.933Z,1.30
2022-09-14T10:58:01.931Z,1.30
2022-09-14T10:59:01.901Z,1.50
2022-09-14T11:00:01.919Z,1.60
2022-09-14T11:01:01.893Z,1.40
2022-09-14T11:02:02.027Z,1.20
2022-09-14T11:03:01.895Z,1.40
2022-09-14T11:04:01.882Z,1.70
2022-09-14T11:05:01.838Z,1.70
2022-09-14T11:06:01.840Z,1.10
2022-09-14T11:07:01.821Z,1.30
2022-09-14T11:08:01.814Z,1.20
2022-09-14T11:09:01.793Z,1.30
2022-09-14T11:10:01.801Z,1.30
2022-09-14T11:11:01.762Z,1.50
2022-09-14T11:12:01.772Z,1.10
2022-09-14T11:13:01.742Z,1.10
2022-09-14T11:14:01.762Z,1.40
2022-09-14T11:15:01.722Z,1.10
2022-09-14T11:16:01.805Z,1.10
2022-09-14T11:17:01.702Z,0.90
2022-09-14T11:18:01.715Z,1.10
2022-09-14T11:19:01.672Z,1.00
2022-09-14T11:20:01.693Z,0.80
2022-09-14T11:21:01.680Z,0.90
2022-09-14T11:22:01.653Z,0.90
2022-09-14T11:23:01.638Z,0.80
2022-09-14T11:24:01.637Z,1.10
2022-09-14T11:25:01.685Z,1.00
2022-09-14T11:26:01.623Z,0.70
2022-09-14T11:27:01.584Z,1.20
2022-09-14T11:28:02.326Z,0.90
2022-09-14T11:29:01.585Z,0.80
2022-09-14T11:30:01.586Z,0.80
2022-09-14T11:31:01.604Z,1.00
2022-09-14T11:32:19.676Z,1.00
2022-09-14T11:33:02.514Z,1.00
2022-09-14T11:34:01.537Z,1.30
2022-09-14T11:35:01.530Z,0.90
2022-09-14T11:36:01.506Z,1.10
2022-09-14T11:37:01.476Z,1.00
2022-09-14T11:38:01.475Z,1.10
2022-09-14T11:39:06.015Z,1.10
2022-09-14T11:40:02.530Z,1.20
2022-09-14T11:41:02.246Z,1.10
2022-09-14T11:42:01.793Z,0.70
2022-09-14T11:43:01.406Z,1.00
2022-09-14T11:44:01.414Z,1.00
2022-09-14T11:45:01.385Z,1.20
2022-09-14T11:46:01.427Z,1.10
2022-09-14T11:47:01.924Z,1.00
2022-09-14T11:48:01.364Z,0.70
2022-09-14T11:49:01.345Z,0.90
2022-09-14T11:50:01.353Z,1.00
2022-09-14T11:51:01.323Z,1.00
2022-09-14T11:52:01.334Z,0.90
2022-09-14T11:53:01.295Z,1.00
2022-09-14T11:54:01.305Z,0.90
2022-09-14T11:55:01.274Z,1.20
2022-09-14T11:56:01.275Z,0.90
2022-09-14T11:57:01.258Z,1.10
2022-09-14T11:58:01.259Z,1.10
2022-09-14T11:59:01.225Z,1.30
2022-09-14T12:00:01.235Z,1.30
2022-09-14T12:01:01.218Z,0.90
2022-09-14T12:02:01.997Z,1.70
2022-09-14T12:03:02.102Z,1.50
2022-09-14T12:04:01.307Z,1.30
2022-09-14T12:05:01.176Z,0.70
2022-09-14T12:06:01.255Z,1.20
2022-09-14T12:07:01.275Z,1.20
2022-09-14T12:08:01.146Z,1.00
2022-09-14T12:09:01.206Z,1.30
2022-09-14T12:10:01.118Z,1.20
2022-09-14T12:11:01.098Z,0.90
2022-09-14T12:12:01.096Z,1.10
2022-09-14T12:13:01.078Z,1.30
2022-09-14T12:14:01.078Z,1.40
2022-09-14T12:15:01.047Z,1.20
2022-09-14T12:16:01.170Z,1.60
2022-09-14T12:17:04.104Z,0.90
2022-09-14T12:18:02.034Z,1.20
2022-09-14T12:19:01.006Z,1.10
2022-09-14T12:20:01.947Z,1.40
2022-09-14T12:21:00.988Z,1.10
2022-09-14T12:22:01.762Z,1.00
2022-09-14T12:23:00.978Z,1.10
2022-09-14T12:24:00.967Z,0.80
2022-09-14T12:25:00.946Z,1.00
2022-09-14T12:26:00.937Z,1.00
2022-09-14T12:27:00.907Z,1.30
2022-09-14T12:28:01.699Z,0.90
2022-09-14T12:29:00.906Z,0.80
2022-09-14T12:30:00.902Z,1.10
2022-09-14T12:31:00.895Z,0.90
2022-09-14T12:32:00.873Z,0.70
2022-09-14T12:33:00.870Z,0.80
2022-09-14T12:34:00.849Z,0.90
2022-09-14T12:35:00.848Z,1.00
2022-09-14T12:36:00.820Z,1.00
2022-09-14T12:37:00.809Z,0.90
2022-09-14T12:38:00.821Z,0.90
2022-09-14T12:39:00.796Z,0.80
2022-09-14T12:40:00.830Z,0.80
2022-09-14T12:41:00.768Z,0.80
2022-09-14T12:42:01.631Z,0.70
2022-09-14T12:43:01.532Z,0.70
2022-09-14T12:44:01.297Z,0.40
2022-09-14T12:45:00.734Z,0.60
2022-09-14T12:46:00.735Z,0.40
2022-09-14T12:47:00.710Z,0.90
2022-09-14T12:48:00.681Z,0.60
2022-09-14T12:49:00.681Z,0.50
2022-09-14T12:50:00.650Z,0.50
2022-09-14T12:51:00.669Z,0.50
2022-09-14T12:52:00.629Z,0.60
2022-09-14T12:53:00.631Z,0.60
2022-09-14T12:54:00.610Z,0.60
2022-09-14T12:55:00.619Z,0.70
2022-09-14T12:56:00.590Z,0.60
2022-09-14T12:57:00.593Z,0.30
2022-09-14T12:58:00.662Z,0.40
2022-09-14T12:59:00.569Z,0.60
2022-09-14T13:00:00.570Z,0.60
2022-09-14T13:01:00.595Z,0.70
2022-09-14T13:02:00.666Z,0.50
2022-09-14T13:03:00.541Z,0.50
2022-09-14T13:04:01.300Z,0.50
2022-09-14T13:05:00.612Z,0.30
2022-09-14T13:06:00.471Z,0.50
2022-09-14T13:07:00.470Z,0.60